sensor_id;sensor_type;location;lat;lon;timestamp;temperature;humidity
32865;DHT22;19219;44.500;11.188;2023-05-19T00:01:43;14.00;99.90
32865;DHT22;19219;44.500;11.188;2023-05-19T00:04:10;14.00;99.90
32865;DHT22;19219;44.500;11.188;2023-05-19T00:06:39;14.00;99.90
32865;DHT22;19219;44.500;11.188;2023-05-19T00:09:07;14.00;99.90
32865;DHT22;19219;44.500;11.188;2023-05-19T00:11:35;14.00;99.90
32865;DHT22;19219;44.500;11.188;2023-05-19T00:14:02;14.00;99.90
32865;DHT22;19219;44.500;11.188;2023-05-19T00:16:30;14.00;99.90
32865;DHT22;19219;44.500;11.188;2023-05-19T00:18:57;14.10;99.90
32865;DHT22;19219;44.500;11.188;2023-05-19T00:21:24;14.10;99.90
32865;DHT22;19219;44.500;11.188;2023-05-19T00:23:50;14.10;99.90
32865;DHT22;19219;44.500;11.188;2023-05-19T00:26:16;14.20;99.90
32865;DHT22;19219;44.500;11.188;2023-05-19T00:28:41;14.20;99.90
32865;DHT22;19219;44.500;11.188;2023-05-19T00:31:07;14.20;99.90
32865;DHT22;19219;44.500;11.188;2023-05-19T00:33:33;14.20;99.90
32865;DHT22;19219;44.500;11.188;2023-05-19T00:36:00;14.10;99.90
32865;DHT22;19219;44.500;11.188;2023-05-19T00:38:31;14.10;99.90
32865;DHT22;19219;44.500;11.188;2023-05-19T00:40:57;14.10;99.90
32865;DHT22;19219;44.500;11.188;2023-05-19T00:43:23;14.10;99.90
32865;DHT22;19219;44.500;11.188;2023-05-19T00:45:50;14.10;99.90
32865;DHT22;19219;44.500;11.188;2023-05-19T00:48:16;14.10;99.90
32865;DHT22;19219;44.500;11.188;2023-05-19T00:50:42;14.10;99.90
32865;DHT22;19219;44.500;11.188;2023-05-19T00:53:08;14.10;99.90
32865;DHT22;19219;44.500;11.188;2023-05-19T00:55:36;14.10;99.90
32865;DHT22;19219;44.500;11.188;2023-05-19T00:58:05;14.10;99.90
32865;DHT22;19219;44.500;11.188;2023-05-19T01:00:31;14.10;99.90
32865;DHT22;19219;44.500;11.188;2023-05-19T01:02:58;14.10;99.90
32865;DHT22;19219;44.500;11.188;2023-05-19T01:05:23;14.00;99.90
32865;DHT22;19219;44.500;11.188;2023-05-19T01:07:50;14.00;99.90
32865;DHT22;19219;44.500;11.188;2023-05-19T01:10:18;14.00;99.90
32865;DHT22;19219;44.500;11.188;2023-05-19T01:12:44;14.00;99.90
32865;DHT22;19219;44.500;11.188;2023-05-19T01:15:11;14.00;99.90
32865;DHT22;19219;44.500;11.188;2023-05-19T01:17:51;14.00;99.90
32865;DHT22;19219;44.500;11.188;2023-05-19T01:20:19;14.10;99.90
32865;DHT22;19219;44.500;11.188;2023-05-19T01:26:24;14.10;99.90
32865;DHT22;19219;44.500;11.188;2023-05-19T01:31:42;14.10;99.90
32865;DHT22;19219;44.500;11.188;2023-05-19T01:34:11;14.20;99.90
32865;DHT22;19219;44.500;11.188;2023-05-19T01:36:37;14.10;99.90
32865;DHT22;19219;44.500;11.188;2023-05-19T01:39:05;14.10;99.90
32865;DHT22;19219;44.500;11.188;2023-05-19T01:41:32;14.10;99.90
32865;DHT22;19219;44.500;11.188;2023-05-19T01:43:59;14.00;99.90
32865;DHT22;19219;44.500;11.188;2023-05-19T01:46:24;14.00;99.90
32865;DHT22;19219;44.500;11.188;2023-05-19T01:48:51;14.00;99.90
32865;DHT22;19219;44.500;11.188;2023-05-19T01:51:17;14.00;99.90
32865;DHT22;19219;44.500;11.188;2023-05-19T01:53:42;14.00;99.90
32865;DHT22;19219;44.500;11.188;2023-05-19T01:56:08;14.00;99.90
32865;DHT22;19219;44.500;11.188;2023-05-19T01:58:45;13.90;99.90
32865;DHT22;19219;44.500;11.188;2023-05-19T02:01:29;13.90;99.90
32865;DHT22;19219;44.500;11.188;2023-05-19T02:07:16;13.90;99.90
32865;DHT22;19219;44.500;11.188;2023-05-19T02:10:09;13.90;99.90
32865;DHT22;19219;44.500;11.188;2023-05-19T02:12:37;13.90;99.90
32865;DHT22;19219;44.500;11.188;2023-05-19T02:15:16;13.90;99.90
32865;DHT22;19219;44.500;11.188;2023-05-19T02:17:43;13.90;99.90
32865;DHT22;19219;44.500;11.188;2023-05-19T02:20:15;13.90;99.90
32865;DHT22;19219;44.500;11.188;2023-05-19T02:22:41;13.90;99.90
32865;DHT22;19219;44.500;11.188;2023-05-19T02:25:07;13.90;99.90
32865;DHT22;19219;44.500;11.188;2023-05-19T02:27:37;14.00;99.90
32865;DHT22;19219;44.500;11.188;2023-05-19T02:30:04;14.00;99.90
32865;DHT22;19219;44.500;11.188;2023-05-19T02:32:30;14.10;99.90
32865;DHT22;19219;44.500;11.188;2023-05-19T02:34:56;14.00;99.90
32865;DHT22;19219;44.500;11.188;2023-05-19T02:37:22;14.00;99.90
32865;DHT22;19219;44.500;11.188;2023-05-19T02:39:53;13.90;99.90
32865;DHT22;19219;44.500;11.188;2023-05-19T02:42:18;13.90;99.90
32865;DHT22;19219;44.500;11.188;2023-05-19T02:44:44;13.90;99.90
32865;DHT22;19219;44.500;11.188;2023-05-19T02:47:11;13.90;99.90
32865;DHT22;19219;44.500;11.188;2023-05-19T02:49:36;13.80;99.90
32865;DHT22;19219;44.500;11.188;2023-05-19T02:52:03;13.80;99.90
32865;DHT22;19219;44.500;11.188;2023-05-19T02:54:30;13.80;99.90
32865;DHT22;19219;44.500;11.188;2023-05-19T02:56:56;13.80;99.90
32865;DHT22;19219;44.500;11.188;2023-05-19T02:59:22;13.80;99.90
32865;DHT22;19219;44.500;11.188;2023-05-19T03:01:48;13.80;99.90
32865;DHT22;19219;44.500;11.188;2023-05-19T03:04:13;13.80;99.90
32865;DHT22;19219;44.500;11.188;2023-05-19T03:06:39;13.80;99.90
32865;DHT22;19219;44.500;11.188;2023-05-19T03:09:06;13.90;99.90
32865;DHT22;19219;44.500;11.188;2023-05-19T03:11:34;13.80;99.90
32865;DHT22;19219;44.500;11.188;2023-05-19T03:14:00;13.80;99.90
32865;DHT22;19219;44.500;11.188;2023-05-19T03:16:26;13.80;99.90
32865;DHT22;19219;44.500;11.188;2023-05-19T03:18:52;13.80;99.90
32865;DHT22;19219;44.500;11.188;2023-05-19T03:21:19;13.80;99.90
32865;DHT22;19219;44.500;11.188;2023-05-19T03:23:45;13.80;99.90
32865;DHT22;19219;44.500;11.188;2023-05-19T03:26:11;13.80;99.90
32865;DHT22;19219;44.500;11.188;2023-05-19T03:28:37;13.80;99.90
32865;DHT22;19219;44.500;11.188;2023-05-19T03:31:03;13.80;99.90
32865;DHT22;19219;44.500;11.188;2023-05-19T03:33:28;13.80;99.90
32865;DHT22;19219;44.500;11.188;2023-05-19T03:35:57;13.80;99.90
32865;DHT22;19219;44.500;11.188;2023-05-19T03:38:23;13.70;99.90
32865;DHT22;19219;44.500;11.188;2023-05-19T03:40:49;13.80;99.90
32865;DHT22;19219;44.500;11.188;2023-05-19T03:43:14;13.80;99.90
32865;DHT22;19219;44.500;11.188;2023-05-19T03:45:41;13.80;99.90
32865;DHT22;19219;44.500;11.188;2023-05-19T03:48:06;13.90;99.90
32865;DHT22;19219;44.500;11.188;2023-05-19T03:50:32;13.90;99.90
32865;DHT22;19219;44.500;11.188;2023-05-19T03:52:59;13.80;99.90
32865;DHT22;19219;44.500;11.188;2023-05-19T03:55:25;13.80;99.90
32865;DHT22;19219;44.500;11.188;2023-05-19T03:57:51;13.80;99.90
32865;DHT22;19219;44.500;11.188;2023-05-19T04:00:17;13.70;99.90
32865;DHT22;19219;44.500;11.188;2023-05-19T04:02:43;13.70;99.90
32865;DHT22;19219;44.500;11.188;2023-05-19T04:05:09;13.70;99.90
32865;DHT22;19219;44.500;11.188;2023-05-19T04:07:35;13.70;99.90
32865;DHT22;19219;44.500;11.188;2023-05-19T04:10:05;13.70;99.90
32865;DHT22;19219;44.500;11.188;2023-05-19T04:12:31;13.60;99.90
32865;DHT22;19219;44.500;11.188;2023-05-19T04:14:57;13.70;99.90
32865;DHT22;19219;44.500;11.188;2023-05-19T04:17:23;13.70;99.90
32865;DHT22;19219;44.500;11.188;2023-05-19T04:19:51;13.70;99.90
32865;DHT22;19219;44.500;11.188;2023-05-19T04:22:17;13.70;99.90
32865;DHT22;19219;44.500;11.188;2023-05-19T04:24:43;13.60;99.90
32865;DHT22;19219;44.500;11.188;2023-05-19T04:27:08;13.70;99.90
32865;DHT22;19219;44.500;11.188;2023-05-19T04:29:37;13.70;99.90
32865;DHT22;19219;44.500;11.188;2023-05-19T04:32:04;13.70;99.90
32865;DHT22;19219;44.500;11.188;2023-05-19T04:34:35;13.70;99.90
32865;DHT22;19219;44.500;11.188;2023-05-19T04:37:07;13.70;99.90
32865;DHT22;19219;44.500;11.188;2023-05-19T04:39:34;13.70;99.90
32865;DHT22;19219;44.500;11.188;2023-05-19T04:42:03;13.80;99.90
32865;DHT22;19219;44.500;11.188;2023-05-19T04:44:28;13.80;99.90
32865;DHT22;19219;44.500;11.188;2023-05-19T04:46:55;13.80;99.90
32865;DHT22;19219;44.500;11.188;2023-05-19T04:49:22;13.80;99.90
32865;DHT22;19219;44.500;11.188;2023-05-19T04:51:53;13.90;99.90
32865;DHT22;19219;44.500;11.188;2023-05-19T04:54:18;13.90;99.90
32865;DHT22;19219;44.500;11.188;2023-05-19T04:56:44;13.90;99.90
32865;DHT22;19219;44.500;11.188;2023-05-19T04:59:10;14.00;99.90
32865;DHT22;19219;44.500;11.188;2023-05-19T05:01:35;14.00;99.90
32865;DHT22;19219;44.500;11.188;2023-05-19T05:04:05;14.00;99.90
32865;DHT22;19219;44.500;11.188;2023-05-19T05:06:31;14.00;99.90
32865;DHT22;19219;44.500;11.188;2023-05-19T05:08:57;14.10;99.90
32865;DHT22;19219;44.500;11.188;2023-05-19T05:11:24;14.10;99.90
32865;DHT22;19219;44.500;11.188;2023-05-19T05:13:50;14.00;99.90
32865;DHT22;19219;44.500;11.188;2023-05-19T05:16:16;14.00;99.90
32865;DHT22;19219;44.500;11.188;2023-05-19T05:18:42;14.10;99.90
32865;DHT22;19219;44.500;11.188;2023-05-19T05:21:08;14.10;99.90
32865;DHT22;19219;44.500;11.188;2023-05-19T05:23:34;14.10;99.90
32865;DHT22;19219;44.500;11.188;2023-05-19T05:26:08;14.10;99.90
32865;DHT22;19219;44.500;11.188;2023-05-19T05:28:34;14.10;99.90
32865;DHT22;19219;44.500;11.188;2023-05-19T05:31:00;14.10;99.90
32865;DHT22;19219;44.500;11.188;2023-05-19T05:33:25;14.10;99.90
32865;DHT22;19219;44.500;11.188;2023-05-19T05:35:51;14.10;99.90
32865;DHT22;19219;44.500;11.188;2023-05-19T05:38:17;14.20;99.90
32865;DHT22;19219;44.500;11.188;2023-05-19T05:40:42;14.20;99.90
32865;DHT22;19219;44.500;11.188;2023-05-19T05:43:08;14.30;99.90
32865;DHT22;19219;44.500;11.188;2023-05-19T05:45:34;14.30;99.90
32865;DHT22;19219;44.500;11.188;2023-05-19T05:48:00;14.40;99.90
32865;DHT22;19219;44.500;11.188;2023-05-19T05:50:26;14.40;99.90
32865;DHT22;19219;44.500;11.188;2023-05-19T05:52:52;14.40;99.90
32865;DHT22;19219;44.500;11.188;2023-05-19T05:55:20;14.40;99.90
32865;DHT22;19219;44.500;11.188;2023-05-19T05:57:45;14.40;99.90
32865;DHT22;19219;44.500;11.188;2023-05-19T06:00:13;14.40;99.90
32865;DHT22;19219;44.500;11.188;2023-05-19T06:02:44;14.40;99.90
32865;DHT22;19219;44.500;11.188;2023-05-19T06:05:15;14.40;99.90
32865;DHT22;19219;44.500;11.188;2023-05-19T06:07:41;14.40;99.90
32865;DHT22;19219;44.500;11.188;2023-05-19T06:10:07;14.50;99.90
32865;DHT22;19219;44.500;11.188;2023-05-19T06:12:34;14.60;99.90
32865;DHT22;19219;44.500;11.188;2023-05-19T06:15:03;14.50;99.90
32865;DHT22;19219;44.500;11.188;2023-05-19T06:17:29;14.60;99.90
32865;DHT22;19219;44.500;11.188;2023-05-19T06:19:55;14.70;99.90
32865;DHT22;19219;44.500;11.188;2023-05-19T06:22:20;14.70;99.90
32865;DHT22;19219;44.500;11.188;2023-05-19T06:24:46;14.80;99.90
32865;DHT22;19219;44.500;11.188;2023-05-19T06:27:12;14.80;99.90
32865;DHT22;19219;44.500;11.188;2023-05-19T06:29:38;14.80;99.90
32865;DHT22;19219;44.500;11.188;2023-05-19T06:32:04;14.80;99.90
32865;DHT22;19219;44.500;11.188;2023-05-19T06:34:29;14.80;99.90
32865;DHT22;19219;44.500;11.188;2023-05-19T06:36:55;14.70;99.90
32865;DHT22;19219;44.500;11.188;2023-05-19T06:39:21;14.80;99.90
32865;DHT22;19219;44.500;11.188;2023-05-19T06:41:47;14.70;99.90
32865;DHT22;19219;44.500;11.188;2023-05-19T06:44:12;14.70;99.90
32865;DHT22;19219;44.500;11.188;2023-05-19T06:46:38;14.60;99.90
32865;DHT22;19219;44.500;11.188;2023-05-19T06:49:04;14.70;99.90
32865;DHT22;19219;44.500;11.188;2023-05-19T06:51:29;14.80;99.90
32865;DHT22;19219;44.500;11.188;2023-05-19T06:53:55;14.90;99.90
32865;DHT22;19219;44.500;11.188;2023-05-19T06:56:21;14.90;99.90
32865;DHT22;19219;44.500;11.188;2023-05-19T06:58:47;14.90;99.90
32865;DHT22;19219;44.500;11.188;2023-05-19T07:01:13;15.10;99.90
32865;DHT22;19219;44.500;11.188;2023-05-19T07:03:38;15.20;99.90
32865;DHT22;19219;44.500;11.188;2023-05-19T07:06:04;15.30;99.90
32865;DHT22;19219;44.500;11.188;2023-05-19T07:08:30;15.30;99.90
32865;DHT22;19219;44.500;11.188;2023-05-19T07:10:55;15.40;99.90
32865;DHT22;19219;44.500;11.188;2023-05-19T07:13:21;15.40;99.90
32865;DHT22;19219;44.500;11.188;2023-05-19T07:15:47;15.50;99.90
32865;DHT22;19219;44.500;11.188;2023-05-19T07:18:16;15.50;99.90
32865;DHT22;19219;44.500;11.188;2023-05-19T07:20:42;15.50;99.90
32865;DHT22;19219;44.500;11.188;2023-05-19T07:23:08;15.60;99.90
32865;DHT22;19219;44.500;11.188;2023-05-19T07:25:33;15.60;99.90
32865;DHT22;19219;44.500;11.188;2023-05-19T07:27:59;15.60;99.90
32865;DHT22;19219;44.500;11.188;2023-05-19T07:30:28;15.70;99.90
32865;DHT22;19219;44.500;11.188;2023-05-19T07:32:54;15.70;99.90
32865;DHT22;19219;44.500;11.188;2023-05-19T07:35:20;15.60;99.90
32865;DHT22;19219;44.500;11.188;2023-05-19T07:37:47;15.70;99.90
32865;DHT22;19219;44.500;11.188;2023-05-19T07:40:13;15.70;99.90
32865;DHT22;19219;44.500;11.188;2023-05-19T07:42:40;15.40;99.90
32865;DHT22;19219;44.500;11.188;2023-05-19T07:45:06;15.40;99.90
32865;DHT22;19219;44.500;11.188;2023-05-19T07:47:32;15.40;99.90
32865;DHT22;19219;44.500;11.188;2023-05-19T07:49:58;15.60;99.90
32865;DHT22;19219;44.500;11.188;2023-05-19T07:52:23;15.70;99.90
32865;DHT22;19219;44.500;11.188;2023-05-19T07:54:49;15.80;99.90
32865;DHT22;19219;44.500;11.188;2023-05-19T07:57:15;15.80;99.90
32865;DHT22;19219;44.500;11.188;2023-05-19T07:59:41;15.70;99.90
32865;DHT22;19219;44.500;11.188;2023-05-19T08:02:06;15.70;99.90
32865;DHT22;19219;44.500;11.188;2023-05-19T08:04:32;15.70;99.90
32865;DHT22;19219;44.500;11.188;2023-05-19T08:06:58;15.60;99.90
32865;DHT22;19219;44.500;11.188;2023-05-19T08:09:25;15.50;99.90
32865;DHT22;19219;44.500;11.188;2023-05-19T08:11:51;15.40;99.90
32865;DHT22;19219;44.500;11.188;2023-05-19T08:14:16;15.50;99.90
32865;DHT22;19219;44.500;11.188;2023-05-19T08:16:42;15.50;99.90
32865;DHT22;19219;44.500;11.188;2023-05-19T08:19:10;15.50;99.90
32865;DHT22;19219;44.500;11.188;2023-05-19T08:21:35;15.50;99.90
32865;DHT22;19219;44.500;11.188;2023-05-19T08:24:01;15.50;99.90
32865;DHT22;19219;44.500;11.188;2023-05-19T08:26:27;15.60;99.90
32865;DHT22;19219;44.500;11.188;2023-05-19T08:28:53;15.90;99.90
32865;DHT22;19219;44.500;11.188;2023-05-19T08:31:19;16.00;99.90
32865;DHT22;19219;44.500;11.188;2023-05-19T08:33:45;15.90;99.90
32865;DHT22;19219;44.500;11.188;2023-05-19T08:36:11;15.90;99.90
32865;DHT22;19219;44.500;11.188;2023-05-19T08:38:36;16.00;99.90
32865;DHT22;19219;44.500;11.188;2023-05-19T08:41:02;16.00;99.90
32865;DHT22;19219;44.500;11.188;2023-05-19T08:43:28;16.00;99.90
32865;DHT22;19219;44.500;11.188;2023-05-19T08:45:54;16.10;99.90
32865;DHT22;19219;44.500;11.188;2023-05-19T08:48:21;16.00;99.90
32865;DHT22;19219;44.500;11.188;2023-05-19T08:51:10;16.10;99.90
32865;DHT22;19219;44.500;11.188;2023-05-19T08:53:39;16.10;99.90
32865;DHT22;19219;44.500;11.188;2023-05-19T08:56:14;16.20;99.90
32865;DHT22;19219;44.500;11.188;2023-05-19T08:58:41;16.30;99.90
32865;DHT22;19219;44.500;11.188;2023-05-19T09:01:09;16.30;99.90
32865;DHT22;19219;44.500;11.188;2023-05-19T09:03:38;16.30;99.90
32865;DHT22;19219;44.500;11.188;2023-05-19T09:06:05;16.20;99.90
32865;DHT22;19219;44.500;11.188;2023-05-19T09:08:34;16.10;99.90
32865;DHT22;19219;44.500;11.188;2023-05-19T09:11:00;16.00;99.90
32865;DHT22;19219;44.500;11.188;2023-05-19T09:13:26;15.80;99.90
32865;DHT22;19219;44.500;11.188;2023-05-19T09:15:52;15.60;99.90
32865;DHT22;19219;44.500;11.188;2023-05-19T09:18:18;15.70;99.90
32865;DHT22;19219;44.500;11.188;2023-05-19T09:20:44;15.60;99.90
32865;DHT22;19219;44.500;11.188;2023-05-19T09:23:14;15.80;99.90
32865;DHT22;19219;44.500;11.188;2023-05-19T09:25:50;15.90;99.90
32865;DHT22;19219;44.500;11.188;2023-05-19T09:28:29;15.90;99.90
32865;DHT22;19219;44.500;11.188;2023-05-19T09:31:10;16.00;99.90
32865;DHT22;19219;44.500;11.188;2023-05-19T09:33:36;16.10;99.90
32865;DHT22;19219;44.500;11.188;2023-05-19T09:36:03;16.20;99.90
32865;DHT22;19219;44.500;11.188;2023-05-19T09:38:39;16.40;99.90
32865;DHT22;19219;44.500;11.188;2023-05-19T09:41:06;16.40;99.90
32865;DHT22;19219;44.500;11.188;2023-05-19T09:43:33;16.50;99.90
32865;DHT22;19219;44.500;11.188;2023-05-19T09:46:07;16.60;99.90
32865;DHT22;19219;44.500;11.188;2023-05-19T09:48:33;16.50;99.90
32865;DHT22;19219;44.500;11.188;2023-05-19T09:51:01;16.40;99.90
32865;DHT22;19219;44.500;11.188;2023-05-19T09:53:28;16.40;99.90
32865;DHT22;19219;44.500;11.188;2023-05-19T09:55:55;16.30;99.90
32865;DHT22;19219;44.500;11.188;2023-05-19T09:58:25;16.30;99.90
32865;DHT22;19219;44.500;11.188;2023-05-19T10:00:52;16.20;99.90
32865;DHT22;19219;44.500;11.188;2023-05-19T10:03:22;16.20;99.90
32865;DHT22;19219;44.500;11.188;2023-05-19T10:05:49;16.10;99.90
32865;DHT22;19219;44.500;11.188;2023-05-19T10:08:16;16.00;99.90
32865;DHT22;19219;44.500;11.188;2023-05-19T10:10:44;16.00;99.90
32865;DHT22;19219;44.500;11.188;2023-05-19T10:13:11;16.00;99.90
32865;DHT22;19219;44.500;11.188;2023-05-19T10:15:36;16.00;99.90
32865;DHT22;19219;44.500;11.188;2023-05-19T10:18:02;16.10;99.90
32865;DHT22;19219;44.500;11.188;2023-05-19T10:20:29;16.10;99.90
32865;DHT22;19219;44.500;11.188;2023-05-19T10:22:55;16.00;99.90
32865;DHT22;19219;44.500;11.188;2023-05-19T10:25:21;15.80;99.90
32865;DHT22;19219;44.500;11.188;2023-05-19T10:30:30;15.50;99.90
32865;DHT22;19219;44.500;11.188;2023-05-19T10:32:59;15.50;99.90
32865;DHT22;19219;44.500;11.188;2023-05-19T10:41:15;15.40;99.90
32865;DHT22;19219;44.500;11.188;2023-05-19T10:46:26;15.60;99.90
32865;DHT22;19219;44.500;11.188;2023-05-19T10:48:53;15.70;99.90
32865;DHT22;19219;44.500;11.188;2023-05-19T10:51:18;15.80;99.90
32865;DHT22;19219;44.500;11.188;2023-05-19T10:53:44;15.80;99.90
32865;DHT22;19219;44.500;11.188;2023-05-19T10:56:31;15.80;99.90
32865;DHT22;19219;44.500;11.188;2023-05-19T10:59:01;15.80;99.90
32865;DHT22;19219;44.500;11.188;2023-05-19T11:01:34;15.90;99.90
32865;DHT22;19219;44.500;11.188;2023-05-19T11:04:07;15.90;99.90
32865;DHT22;19219;44.500;11.188;2023-05-19T11:06:36;15.90;99.90
32865;DHT22;19219;44.500;11.188;2023-05-19T11:09:14;16.00;99.90
32865;DHT22;19219;44.500;11.188;2023-05-19T11:11:51;15.90;99.90
32865;DHT22;19219;44.500;11.188;2023-05-19T11:16:48;16.00;99.90
32865;DHT22;19219;44.500;11.188;2023-05-19T11:19:18;16.00;99.90
32865;DHT22;19219;44.500;11.188;2023-05-19T11:21:48;16.10;99.90
32865;DHT22;19219;44.500;11.188;2023-05-19T11:24:39;16.30;99.90
32865;DHT22;19219;44.500;11.188;2023-05-19T11:29:49;16.60;99.90
32865;DHT22;19219;44.500;11.188;2023-05-19T11:32:24;16.70;99.90
32865;DHT22;19219;44.500;11.188;2023-05-19T11:34:51;16.60;99.90
32865;DHT22;19219;44.500;11.188;2023-05-19T11:37:17;16.50;99.90
32865;DHT22;19219;44.500;11.188;2023-05-19T11:39:45;16.50;99.90
32865;DHT22;19219;44.500;11.188;2023-05-19T11:42:11;16.50;99.90
32865;DHT22;19219;44.500;11.188;2023-05-19T11:44:37;16.40;99.90
32865;DHT22;19219;44.500;11.188;2023-05-19T11:47:06;16.40;99.90
32865;DHT22;19219;44.500;11.188;2023-05-19T11:49:32;16.30;99.90
32865;DHT22;19219;44.500;11.188;2023-05-19T11:52:02;16.30;99.90
32865;DHT22;19219;44.500;11.188;2023-05-19T11:54:32;16.20;99.90
32865;DHT22;19219;44.500;11.188;2023-05-19T11:57:00;16.20;99.90
32865;DHT22;19219;44.500;11.188;2023-05-19T12:01:57;16.00;99.90
32865;DHT22;19219;44.500;11.188;2023-05-19T12:04:23;16.00;99.90
32865;DHT22;19219;44.500;11.188;2023-05-19T12:06:48;16.00;99.90
32865;DHT22;19219;44.500;11.188;2023-05-19T12:09:14;15.90;99.90
32865;DHT22;19219;44.500;11.188;2023-05-19T12:11:40;15.90;99.90
32865;DHT22;19219;44.500;11.188;2023-05-19T12:14:06;15.90;99.90
32865;DHT22;19219;44.500;11.188;2023-05-19T12:16:35;15.90;99.90
32865;DHT22;19219;44.500;11.188;2023-05-19T12:19:04;16.00;99.90
32865;DHT22;19219;44.500;11.188;2023-05-19T12:21:30;16.00;99.90
32865;DHT22;19219;44.500;11.188;2023-05-19T12:23:56;16.10;99.90
32865;DHT22;19219;44.500;11.188;2023-05-19T12:26:22;16.10;99.90
32865;DHT22;19219;44.500;11.188;2023-05-19T12:28:49;16.10;99.90
32865;DHT22;19219;44.500;11.188;2023-05-19T12:31:16;16.20;99.90
32865;DHT22;19219;44.500;11.188;2023-05-19T12:33:41;16.20;99.90
32865;DHT22;19219;44.500;11.188;2023-05-19T12:36:08;16.20;99.90
32865;DHT22;19219;44.500;11.188;2023-05-19T12:38:35;16.30;99.90
32865;DHT22;19219;44.500;11.188;2023-05-19T12:41:04;16.30;99.90
32865;DHT22;19219;44.500;11.188;2023-05-19T12:43:31;16.20;99.90
32865;DHT22;19219;44.500;11.188;2023-05-19T12:45:57;16.30;99.90
32865;DHT22;19219;44.500;11.188;2023-05-19T12:48:23;16.30;99.90
32865;DHT22;19219;44.500;11.188;2023-05-19T12:50:51;16.20;99.90
32865;DHT22;19219;44.500;11.188;2023-05-19T12:53:19;16.30;99.90
32865;DHT22;19219;44.500;11.188;2023-05-19T12:55:45;16.30;99.90
32865;DHT22;19219;44.500;11.188;2023-05-19T12:58:11;16.30;99.90
32865;DHT22;19219;44.500;11.188;2023-05-19T13:00:41;16.20;99.90
32865;DHT22;19219;44.500;11.188;2023-05-19T13:03:16;16.20;99.90
32865;DHT22;19219;44.500;11.188;2023-05-19T13:05:44;16.30;99.90
32865;DHT22;19219;44.500;11.188;2023-05-19T13:08:21;16.30;99.90
32865;DHT22;19219;44.500;11.188;2023-05-19T13:10:50;16.30;99.90
32865;DHT22;19219;44.500;11.188;2023-05-19T13:13:16;16.30;99.90
32865;DHT22;19219;44.500;11.188;2023-05-19T13:15:43;16.40;99.90
32865;DHT22;19219;44.500;11.188;2023-05-19T13:18:10;16.60;99.90
32865;DHT22;19219;44.500;11.188;2023-05-19T13:20:37;16.70;99.90
32865;DHT22;19219;44.500;11.188;2023-05-19T13:23:03;16.70;99.90
32865;DHT22;19219;44.500;11.188;2023-05-19T13:25:31;16.80;99.90
32865;DHT22;19219;44.500;11.188;2023-05-19T13:27:57;16.80;99.90
32865;DHT22;19219;44.500;11.188;2023-05-19T13:30:26;16.90;99.90
32865;DHT22;19219;44.500;11.188;2023-05-19T13:32:52;17.00;99.90
32865;DHT22;19219;44.500;11.188;2023-05-19T13:35:18;16.90;99.90
32865;DHT22;19219;44.500;11.188;2023-05-19T13:37:44;17.00;99.90
32865;DHT22;19219;44.500;11.188;2023-05-19T13:40:10;17.00;99.90
32865;DHT22;19219;44.500;11.188;2023-05-19T13:42:36;17.00;99.90
32865;DHT22;19219;44.500;11.188;2023-05-19T13:45:02;17.10;99.90
32865;DHT22;19219;44.500;11.188;2023-05-19T13:47:28;17.10;99.90
32865;DHT22;19219;44.500;11.188;2023-05-19T13:49:54;17.10;99.90
32865;DHT22;19219;44.500;11.188;2023-05-19T13:52:20;17.10;99.90
32865;DHT22;19219;44.500;11.188;2023-05-19T13:54:46;17.10;99.90
32865;DHT22;19219;44.500;11.188;2023-05-19T13:57:12;17.10;99.90
32865;DHT22;19219;44.500;11.188;2023-05-19T13:59:38;17.10;99.90
32865;DHT22;19219;44.500;11.188;2023-05-19T14:02:04;17.10;99.90
32865;DHT22;19219;44.500;11.188;2023-05-19T14:04:30;17.20;99.90
32865;DHT22;19219;44.500;11.188;2023-05-19T14:06:56;17.10;99.90
32865;DHT22;19219;44.500;11.188;2023-05-19T14:09:23;17.10;99.90
32865;DHT22;19219;44.500;11.188;2023-05-19T14:11:49;17.10;99.90
32865;DHT22;19219;44.500;11.188;2023-05-19T14:14:14;17.10;99.90
32865;DHT22;19219;44.500;11.188;2023-05-19T14:16:40;17.10;99.90
32865;DHT22;19219;44.500;11.188;2023-05-19T14:19:06;17.10;99.90
32865;DHT22;19219;44.500;11.188;2023-05-19T14:21:32;17.10;99.90
32865;DHT22;19219;44.500;11.188;2023-05-19T14:23:58;17.00;99.90
32865;DHT22;19219;44.500;11.188;2023-05-19T14:26:24;16.90;99.90
32865;DHT22;19219;44.500;11.188;2023-05-19T14:28:50;17.00;99.90
32865;DHT22;19219;44.500;11.188;2023-05-19T14:31:16;17.00;99.90
32865;DHT22;19219;44.500;11.188;2023-05-19T14:33:42;17.00;99.90
32865;DHT22;19219;44.500;11.188;2023-05-19T14:36:08;17.00;99.90
32865;DHT22;19219;44.500;11.188;2023-05-19T14:38:34;17.00;99.90
32865;DHT22;19219;44.500;11.188;2023-05-19T14:41:00;16.90;99.90
32865;DHT22;19219;44.500;11.188;2023-05-19T14:43:26;16.80;99.90
32865;DHT22;19219;44.500;11.188;2023-05-19T14:45:51;16.90;99.90
32865;DHT22;19219;44.500;11.188;2023-05-19T14:48:17;16.90;99.90
32865;DHT22;19219;44.500;11.188;2023-05-19T14:50:43;16.90;99.90
32865;DHT22;19219;44.500;11.188;2023-05-19T14:53:09;16.80;99.90
32865;DHT22;19219;44.500;11.188;2023-05-19T14:55:35;16.90;99.90
32865;DHT22;19219;44.500;11.188;2023-05-19T14:58:01;16.80;99.90
32865;DHT22;19219;44.500;11.188;2023-05-19T15:00:26;16.90;99.90
32865;DHT22;19219;44.500;11.188;2023-05-19T15:02:52;17.00;99.90
32865;DHT22;19219;44.500;11.188;2023-05-19T15:05:18;17.10;99.90
32865;DHT22;19219;44.500;11.188;2023-05-19T15:07:44;17.10;99.90
32865;DHT22;19219;44.500;11.188;2023-05-19T15:10:10;17.10;99.90
32865;DHT22;19219;44.500;11.188;2023-05-19T15:12:36;17.00;99.90
32865;DHT22;19219;44.500;11.188;2023-05-19T15:15:01;17.00;99.90
32865;DHT22;19219;44.500;11.188;2023-05-19T15:17:27;17.00;99.90
32865;DHT22;19219;44.500;11.188;2023-05-19T15:19:53;16.90;99.90
32865;DHT22;19219;44.500;11.188;2023-05-19T15:22:19;16.90;99.90
32865;DHT22;19219;44.500;11.188;2023-05-19T15:24:44;16.80;99.90
32865;DHT22;19219;44.500;11.188;2023-05-19T15:27:10;16.70;99.90
32865;DHT22;19219;44.500;11.188;2023-05-19T15:29:36;16.70;99.90
32865;DHT22;19219;44.500;11.188;2023-05-19T15:32:01;16.70;99.90
32865;DHT22;19219;44.500;11.188;2023-05-19T15:34:27;16.60;99.90
32865;DHT22;19219;44.500;11.188;2023-05-19T15:36:53;16.70;99.90
32865;DHT22;19219;44.500;11.188;2023-05-19T15:39:19;16.80;99.90
32865;DHT22;19219;44.500;11.188;2023-05-19T15:41:44;16.90;99.90
32865;DHT22;19219;44.500;11.188;2023-05-19T15:44:10;16.90;99.90